MiSS Sylvia — WDE5412 — position and weather

sailwx.info

Track history (hours):
 
Tides and Currents Weather Stations Pressure Air Temp Water Temp Dewpoint Dewpoint Depression Visibility Wind Speed Wind Dir Waves Ship Positions

MiSS Sylvia

Owner: DOUBLE J MARINE, LLC, LAPLACE, LA. More information available from US FCC via Universal Licensing System and Coast Guard Vessel Documentation Center.

Last reported at 2015-Jul-03 23:19 UTC. Time now 2015-Jul-05 00:11 UTC.
Position N 29°57' W 090°09'.

Length 20 m; draft 2.7 m.

Type: Towing. MMSI: 367366340.

Date/timePositionNaut miles runAvg speedWind from/ knotsBaromVisibWave heightAir tempDewpointWater temp
2015-Jul-03 23:19N 29°57' W 090°09'2 2.4
2015-Jul-03 22:30N 29°56' W 090°08'4 4.1
2015-Jul-03 21:30N 29°56' W 090°04'6 4.0
2015-Jul-03 20:08N 29°55' W 089°57'2 2.8
2015-Jul-03 19:18N 29°56' W 089°60'6 6.7
2015-Jul-03 18:21N 29°55' W 090°07'  
2015-Jul-01 06:17N 29°56' W 090°08'3 3.1
2015-Jul-01 05:14N 29°55' W 090°05'2 3.5
2015-Jul-01 04:32N 29°57' W 090°04'1 1.5
2015-Jul-01 03:30N 29°57' W 090°02'6 6.3
2015-Jul-01 02:33N 29°55' W 090°08'  
2015-Jun-27 21:27N 29°47' W 090°01'9 2.7
2015-Jun-27 18:09N 29°55' W 089°56'3 3.7
2015-Jun-27 17:24N 29°56' W 089°59'6 5.9
2015-Jun-27 16:22N 29°55' W 090°06'18 0.5
2015-Jun-26 02:32N 29°39' W 089°57'17 2.3
2015-Jun-25 19:10N 29°55' W 089°55'7 9.4
2015-Jun-25 18:29N 29°58' W 090°02'26 0.8
2015-Jun-24 08:18N 30°03' W 090°32'4 2.0
2015-Jun-24 06:20N 30°03' W 090°36'3 2.6
2015-Jun-24 05:12N 30°03' W 090°33'4 3.4
2015-Jun-24 04:08N 30°03' W 090°29'0 0.7
2015-Jun-24 03:33N 30°03' W 090°28'8 2.6
2015-Jun-24 00:31N 29°57' W 090°23'  
Track history (hours):
 
Tides and Currents Weather Stations Pressure Air Temp Water Temp Dewpoint Dewpoint Depression Visibility Wind Speed Wind Dir Waves Ship Positions

MiSS Sylvia

Owner: DOUBLE J MARINE, LLC, LAPLACE, LA. More information available from US FCC via Universal Licensing System and Coast Guard Vessel Documentation Center.

Last reported at 2015-Jul-03 23:19 UTC. Time now 2015-Jul-05 00:11 UTC.
Position N 29°57' W 090°09'.

Length 20 m; draft 2.7 m.

Type: Towing. MMSI: 367366340.

Date/timePositionNaut miles runAvg speedWind from/ knotsBaromVisibWave heightAir tempDewpointWater temp
2015-Jul-03 23:19N 29°57' W 090°09'2 2.4
2015-Jul-03 22:30N 29°56' W 090°08'4 4.1
2015-Jul-03 21:30N 29°56' W 090°04'6 4.0
2015-Jul-03 20:08N 29°55' W 089°57'2 2.8
2015-Jul-03 19:18N 29°56' W 089°60'6 6.7
2015-Jul-03 18:21N 29°55' W 090°07'  
2015-Jul-01 06:17N 29°56' W 090°08'3 3.1
2015-Jul-01 05:14N 29°55' W 090°05'2 3.5
2015-Jul-01 04:32N 29°57' W 090°04'1 1.5
2015-Jul-01 03:30N 29°57' W 090°02'6 6.3
2015-Jul-01 02:33N 29°55' W 090°08'  
2015-Jun-27 21:27N 29°47' W 090°01'9 2.7
2015-Jun-27 18:09N 29°55' W 089°56'3 3.7
2015-Jun-27 17:24N 29°56' W 089°59'6 5.9
2015-Jun-27 16:22N 29°55' W 090°06'18 0.5
2015-Jun-26 02:32N 29°39' W 089°57'17 2.3
2015-Jun-25 19:10N 29°55' W 089°55'7 9.4
2015-Jun-25 18:29N 29°58' W 090°02'26 0.8
2015-Jun-24 08:18N 30°03' W 090°32'4 2.0
2015-Jun-24 06:20N 30°03' W 090°36'3 2.6
2015-Jun-24 05:12N 30°03' W 090°33'4 3.4
2015-Jun-24 04:08N 30°03' W 090°29'0 0.7
2015-Jun-24 03:33N 30°03' W 090°28'8 2.6
2015-Jun-24 00:31N 29°57' W 090°23'  

Dump ship's entire track history